Time;durP1;ratioP1;P1;durP2;ratioP2;P2;SDS_P1;SDS_P2;PMS_P1;PMS_P2;Temp;Humidity;BMP_temperature;BMP_pressure;BME280_temperature;BME280_humidity;BME280_pressure;Samples;Min_cycle;Max_cycle;Signal;HPM_P1;HPM_P2
2021/07/25 00:00:08;;;;;;;16.67;15.37;;;18.90;99.90;;;;;;4971004;28;20246;-77
2021/07/25 00:02:36;;;;;;;16.90;15.60;;;18.90;99.90;;;;;;4969728;28;20223;-77
2021/07/25 00:05:05;;;;;;;16.33;14.93;;;18.90;99.90;;;;;;4987155;28;20191;-77
2021/07/25 00:07:31;;;;;;;15.70;14.30;;;18.90;99.90;;;;;;4986755;28;20559;-77
2021/07/25 00:09:58;;;;;;;15.97;14.57;;;18.90;99.90;;;;;;4991357;28;20560;-77
2021/07/25 00:12:26;;;;;;;16.93;15.40;;;18.90;99.90;;;;;;4990617;28;20695;-77
2021/07/25 00:14:53;;;;;;;19.80;18.03;;;19.00;99.90;;;;;;4969389;28;20254;-77
2021/07/25 00:17:20;;;;;;;17.17;15.77;;;19.00;99.90;;;;;;4989924;28;20196;-77
2021/07/25 00:19:47;;;;;;;16.53;15.03;;;18.90;99.90;;;;;;4968518;28;20208;-76
2021/07/25 00:22:14;;;;;;;18.50;16.93;;;18.90;99.90;;;;;;4969341;28;20222;-77
2021/07/25 00:24:49;;;;;;;18.60;16.83;;;18.90;99.90;;;;;;4986852;28;20194;-77
2021/07/25 00:27:16;;;;;;;17.60;16.20;;;18.90;99.90;;;;;;4983300;28;20245;-77
2021/07/25 00:29:44;;;;;;;18.03;16.43;;;18.90;99.90;;;;;;4991346;28;20223;-77
2021/07/25 00:32:11;;;;;;;18.03;16.63;;;18.80;99.90;;;;;;4988499;28;20228;-77
2021/07/25 00:34:38;;;;;;;18.10;16.60;;;18.80;99.90;;;;;;4986433;28;20254;-77
2021/07/25 00:37:05;;;;;;;17.67;16.17;;;18.90;99.90;;;;;;4972762;28;20196;-78
2021/07/25 00:39:32;;;;;;;17.23;15.87;;;18.80;99.90;;;;;;4986310;28;20237;-77
2021/07/25 00:41:59;;;;;;;17.73;16.40;;;18.90;99.90;;;;;;4986128;28;20205;-77
2021/07/25 00:44:25;;;;;;;16.93;15.53;;;18.80;99.90;;;;;;4986960;28;20199;-77
2021/07/25 00:46:58;;;;;;;17.30;15.80;;;18.80;99.90;;;;;;4990801;28;20243;-77
2021/07/25 00:49:25;;;;;;;18.03;16.43;;;18.80;99.90;;;;;;4972414;28;20274;-77
2021/07/25 00:51:52;;;;;;;16.73;15.43;;;18.80;99.90;;;;;;4987003;28;20216;-77
2021/07/25 00:54:19;;;;;;;15.80;14.60;;;18.70;99.90;;;;;;4989200;28;20195;-77
2021/07/25 00:56:46;;;;;;;18.83;17.13;;;18.80;99.90;;;;;;4968328;28;20234;-77
2021/07/25 00:59:13;;;;;;;16.97;15.67;;;18.70;99.90;;;;;;4985713;28;20211;-77
2021/07/25 01:01:40;;;;;;;16.40;15.20;;;18.70;99.90;;;;;;4984713;28;20663;-78
2021/07/25 01:04:39;;;;;;;16.43;15.13;;;18.70;99.90;;;;;;4982572;28;20191;-77
2021/07/25 01:07:17;;;;;;;16.50;15.20;;;18.70;99.90;;;;;;4982595;28;20183;-76
2021/07/25 01:09:51;;;;;;;17.53;16.07;;;18.70;99.90;;;;;;4990411;28;20253;-77
2021/07/25 01:12:20;;;;;;;16.27;14.93;;;18.70;99.90;;;;;;4988728;28;20220;-77
2021/07/25 01:14:49;;;;;;;18.13;16.63;;;18.70;99.90;;;;;;4970065;28;20208;-77
2021/07/25 01:17:30;;;;;;;16.80;15.50;;;18.70;99.90;;;;;;4970775;28;20223;-78
2021/07/25 01:19:59;;;;;;;16.83;15.53;;;18.80;99.90;;;;;;4985879;28;20195;-77
2021/07/25 01:22:28;;;;;;;15.67;14.47;;;18.70;99.90;;;;;;4985624;28;20212;-77
2021/07/25 01:24:55;;;;;;;16.83;15.43;;;18.70;99.90;;;;;;4967901;28;20206;-77
2021/07/25 01:27:29;;;;;;;17.13;15.80;;;18.60;99.90;;;;;;4992807;28;20202;-77
2021/07/25 01:29:58;;;;;;;18.30;16.67;;;18.60;99.90;;;;;;4985960;28;20196;-77
2021/07/25 01:32:26;;;;;;;17.50;16.20;;;18.60;99.90;;;;;;4971631;28;20226;-77
2021/07/25 01:34:55;;;;;;;17.37;15.80;;;18.50;99.90;;;;;;4985383;28;20198;-77
2021/07/25 01:37:27;;;;;;;18.73;17.20;;;18.60;99.90;;;;;;4967607;28;20254;-76
2021/07/25 01:39:53;;;;;;;17.47;15.97;;;18.60;99.90;;;;;;4985286;28;20219;-78
2021/07/25 01:42:28;;;;;;;18.60;16.90;;;18.60;99.90;;;;;;4969299;28;20756;-77
2021/07/25 01:44:55;;;;;;;17.10;15.80;;;18.60;99.90;;;;;;4989936;28;20195;-77
2021/07/25 01:47:22;;;;;;;17.53;16.23;;;18.60;99.90;;;;;;4988542;28;20599;-77
2021/07/25 01:49:49;;;;;;;17.17;15.87;;;18.50;99.90;;;;;;4984998;28;20267;-77
2021/07/25 01:52:16;;;;;;;16.57;15.27;;;18.50;99.90;;;;;;4988771;28;20216;-77
2021/07/25 01:54:44;;;;;;;18.47;16.87;;;18.50;99.90;;;;;;4967617;28;20250;-77
2021/07/25 01:57:11;;;;;;;17.97;16.53;;;18.50;99.90;;;;;;4984180;28;20242;-77
2021/07/25 01:59:38;;;;;;;18.33;16.83;;;18.50;99.90;;;;;;4967596;28;20220;-77
2021/07/25 02:02:05;;;;;;;17.87;16.47;;;18.50;99.90;;;;;;4988695;28;20238;-77
2021/07/25 02:04:31;;;;;;;18.53;16.93;;;18.50;99.90;;;;;;4989440;28;20194;-78
2021/07/25 02:06:59;;;;;;;19.00;17.43;;;18.60;99.90;;;;;;4984881;28;20192;-77
2021/07/25 02:09:26;;;;;;;17.53;16.03;;;18.60;99.90;;;;;;4971420;28;20206;-77
2021/07/25 02:11:54;;;;;;;18.57;17.07;;;18.60;99.90;;;;;;4967081;28;20217;-77
2021/07/25 02:14:21;;;;;;;19.00;17.20;;;18.60;99.90;;;;;;4984653;28;20189;-77
2021/07/25 02:16:48;;;;;;;17.90;16.50;;;18.60;99.90;;;;;;4967107;28;20210;-77
2021/07/25 02:19:15;;;;;;;16.53;15.23;;;18.60;99.90;;;;;;4969422;28;20206;-78
2021/07/25 02:21:41;;;;;;;17.53;16.03;;;18.60;99.90;;;;;;4989153;28;20222;-77
2021/07/25 02:24:08;;;;;;;16.47;15.07;;;18.50;99.90;;;;;;4986521;28;20195;-77
2021/07/25 02:26:35;;;;;;;16.70;15.40;;;18.60;99.90;;;;;;4987857;28;20298;-76
2021/07/25 02:29:03;;;;;;;17.50;16.10;;;18.60;99.90;;;;;;4985822;28;20191;-77
2021/07/25 02:31:30;;;;;;;16.00;14.77;;;18.60;99.90;;;;;;4981020;28;20289;-76
2021/07/25 02:33:57;;;;;;;17.80;16.33;;;18.60;99.90;;;;;;4982199;28;20726;-77
2021/07/25 02:36:24;;;;;;;16.77;15.20;;;18.60;99.90;;;;;;4993375;28;20686;-77
2021/07/25 02:38:50;;;;;;;17.70;16.33;;;18.60;99.90;;;;;;4987779;28;20210;-79
2021/07/25 02:41:17;;;;;;;15.97;14.67;;;18.60;99.90;;;;;;4979509;28;20723;-77
2021/07/25 02:43:44;;;;;;;16.07;14.80;;;18.60;99.90;;;;;;4972066;28;20203;-77
2021/07/25 02:46:12;;;;;;;15.53;14.33;;;18.50;99.90;;;;;;4962361;28;20199;-78
2021/07/25 02:48:39;;;;;;;15.73;14.50;;;18.50;99.90;;;;;;4957288;28;20253;-77
2021/07/25 02:51:06;;;;;;;16.47;14.97;;;18.50;99.90;;;;;;4957420;28;20552;-77
2021/07/25 02:53:33;;;;;;;15.10;13.90;;;18.50;99.90;;;;;;4960950;28;20207;-77
2021/07/25 02:56:00;;;;;;;15.43;14.23;;;18.50;99.90;;;;;;4984308;28;20222;-76
2021/07/25 02:58:27;;;;;;;15.93;14.53;;;18.40;99.90;;;;;;4959997;28;20222;-77
2021/07/25 03:00:53;;;;;;;15.37;14.17;;;18.50;99.90;;;;;;4987080;28;20207;-76
2021/07/25 03:03:22;;;;;;;15.77;14.57;;;18.50;99.90;;;;;;4969743;28;20656;-77
2021/07/25 03:05:51;;;;;;;15.47;14.37;;;18.40;99.90;;;;;;4986101;28;20210;-77
2021/07/25 03:08:18;;;;;;;14.90;13.80;;;18.40;99.90;;;;;;4978507;28;20210;-77
2021/07/25 03:10:45;;;;;;;16.03;14.73;;;18.40;99.90;;;;;;4970610;28;20226;-76
2021/07/25 03:13:12;;;;;;;16.43;15.07;;;18.40;99.90;;;;;;4988012;28;20605;-77
2021/07/25 03:15:39;;;;;;;14.00;12.80;;;18.40;99.90;;;;;;4989717;28;20222;-77
2021/07/25 03:18:05;;;;;;;14.20;13.10;;;18.40;99.90;;;;;;4966454;28;20208;-75
2021/07/25 03:20:33;;;;;;;14.90;13.70;;;18.40;99.90;;;;;;4981735;28;20624;-76
2021/07/25 03:23:00;;;;;;;15.33;14.00;;;18.40;99.90;;;;;;4973614;28;20206;-77
2021/07/25 03:25:27;;;;;;;15.40;14.10;;;18.40;99.90;;;;;;4965235;28;20201;-77
2021/07/25 03:27:54;;;;;;;16.20;14.90;;;18.40;99.90;;;;;;4970983;28;20276;-77
2021/07/25 03:30:21;;;;;;;15.63;14.33;;;18.40;99.90;;;;;;4977708;28;20204;-77
2021/07/25 03:32:48;;;;;;;15.77;14.57;;;18.40;99.90;;;;;;4977400;28;20638;-77
2021/07/25 03:35:15;;;;;;;15.87;14.40;;;18.40;99.90;;;;;;4976971;28;20550;-78
2021/07/25 03:37:45;;;;;;;15.87;14.67;;;18.30;99.90;;;;;;4971658;28;20208;-76
2021/07/25 03:40:13;;;;;;;15.77;14.47;;;18.30;99.90;;;;;;4969365;28;20254;-77
2021/07/25 03:42:40;;;;;;;15.10;13.90;;;18.40;99.90;;;;;;4979767;28;20215;-76
2021/07/25 03:45:08;;;;;;;15.70;14.50;;;18.40;99.90;;;;;;4967358;28;20220;-78
2021/07/25 03:47:35;;;;;;;17.17;15.77;;;18.40;99.90;;;;;;4980959;28;20563;-76
2021/07/25 03:50:02;;;;;;;15.37;14.07;;;18.30;99.90;;;;;;4974577;28;20192;-77
2021/07/25 03:52:28;;;;;;;15.53;14.40;;;18.30;99.90;;;;;;4982734;28;20599;-76
2021/07/25 03:54:57;;;;;;;16.23;14.97;;;18.30;99.90;;;;;;4970468;28;20259;-77
2021/07/25 03:57:23;;;;;;;16.97;15.57;;;18.20;99.90;;;;;;4983633;28;20590;-77
2021/07/25 03:59:50;;;;;;;14.70;13.60;;;18.20;99.90;;;;;;4964832;28;20212;-77
2021/07/25 04:02:17;;;;;;;14.20;13.13;;;18.20;99.90;;;;;;4972514;28;20727;-77
2021/07/25 04:04:44;;;;;;;15.87;14.57;;;18.20;99.90;;;;;;4966482;28;20207;-77
2021/07/25 04:07:11;;;;;;;10.13;9.23;;;18.20;99.90;;;;;;4976426;28;20822;-78
2021/07/25 04:09:37;;;;;;;11.50;10.30;;;18.20;99.90;;;;;;4966977;28;20199;-79
2021/07/25 04:12:06;;;;;;;11.67;10.60;;;18.20;99.90;;;;;;4976550;28;20281;-81
2021/07/25 04:14:33;;;;;;;11.80;10.60;;;18.20;99.90;;;;;;4978146;28;20676;-82
2021/07/25 04:17:00;;;;;;;12.23;10.97;;;18.20;99.90;;;;;;4976013;28;20203;-82
2021/07/25 04:19:28;;;;;;;14.07;10.90;;;18.20;99.90;;;;;;4970511;28;20220;-83
2021/07/25 04:21:55;;;;;;;10.93;9.83;;;18.20;99.90;;;;;;4972599;28;20304;-80
2021/07/25 04:24:22;;;;;;;11.77;10.57;;;18.30;99.90;;;;;;4976293;28;20197;-81
2021/07/25 04:26:49;;;;;;;11.40;10.20;;;18.30;99.90;;;;;;4983428;28;20199;-82
2021/07/25 04:29:18;;;;;;;12.23;10.10;;;18.30;99.90;;;;;;4972795;28;20190;-80
2021/07/25 04:31:46;;;;;;;11.43;10.30;;;18.30;99.90;;;;;;4990475;28;20226;-78
2021/07/25 04:34:13;;;;;;;14.07;11.80;;;18.30;99.90;;;;;;4972511;28;20648;-76
2021/07/25 04:36:42;;;;;;;13.13;11.30;;;18.30;99.90;;;;;;4990254;28;20600;-77
2021/07/25 04:39:10;;;;;;;12.50;11.20;;;18.40;99.90;;;;;;4970731;28;20308;-78
2021/07/25 04:41:41;;;;;;;13.07;10.63;;;18.40;99.90;;;;;;4994408;28;20230;-76
2021/07/25 04:44:15;;;;;;;14.77;11.60;;;18.50;99.90;;;;;;4974051;28;20286;-77
2021/07/25 04:46:47;;;;;;;12.40;10.97;;;18.50;99.90;;;;;;4989994;28;20683;-76
2021/07/25 04:49:16;;;;;;;17.87;16.43;;;18.60;99.90;;;;;;4994586;28;20660;-77
2021/07/25 04:51:44;;;;;;;16.27;14.87;;;18.60;99.90;;;;;;4991487;28;20223;-77
2021/07/25 04:54:13;;;;;;;16.27;14.97;;;18.70;99.90;;;;;;4994687;28;20221;-77
2021/07/25 04:56:57;;;;;;;18.70;17.33;;;18.80;99.90;;;;;;4977017;28;20659;-77
2021/07/25 04:59:28;;;;;;;14.50;13.43;;;19.00;99.90;;;;;;4994583;28;20264;-76
2021/07/25 05:02:00;;;;;;;13.43;12.40;;;19.20;99.90;;;;;;4977020;28;20213;-77
2021/07/25 05:04:29;;;;;;;13.80;12.70;;;19.20;99.90;;;;;;4976974;28;20631;-77
2021/07/25 05:06:56;;;;;;;15.40;14.30;;;19.30;99.90;;;;;;4993816;28;20197;-77
2021/07/25 05:09:24;;;;;;;17.83;16.43;;;19.40;99.90;;;;;;4973359;28;20189;-77
2021/07/25 05:11:53;;;;;;;13.97;12.87;;;19.40;99.90;;;;;;4994116;28;20618;-76
2021/07/25 05:14:22;;;;;;;14.23;12.97;;;19.60;99.90;;;;;;4991815;28;20188;-77
2021/07/25 05:17:01;;;;;;;10.00;9.00;;;19.50;99.90;;;;;;4976368;28;20209;-77
2021/07/25 05:19:35;;;;;;;15.87;14.67;;;19.60;99.90;;;;;;4990336;28;20705;-77
2021/07/25 05:22:10;;;;;;;15.17;13.87;;;19.70;99.90;;;;;;4989929;28;20218;-77
2021/07/25 05:24:43;;;;;;;16.67;15.47;;;19.80;99.90;;;;;;4992811;28;20200;-77
2021/07/25 05:27:18;;;;;;;14.47;13.27;;;19.90;99.90;;;;;;4988711;28;20234;-76
2021/07/25 05:29:45;;;;;;;14.20;13.00;;;20.10;99.90;;;;;;4991825;28;20194;-77
2021/07/25 05:32:13;;;;;;;15.23;13.87;;;20.20;99.90;;;;;;5008276;22;20235;-77
2021/07/25 05:34:40;;;;;;;13.27;12.17;;;20.20;99.90;;;;;;4976926;28;20204;-77
2021/07/25 05:37:07;;;;;;;14.13;13.03;;;20.40;99.90;;;;;;4994212;28;20247;-76
2021/07/25 05:39:34;;;;;;;14.57;13.07;;;20.50;99.90;;;;;;4994448;28;20228;-77
2021/07/25 05:42:00;;;;;;;17.87;16.47;;;20.60;99.90;;;;;;4973130;28;20266;-77
2021/07/25 05:44:27;;;;;;;16.30;15.00;;;20.80;99.90;;;;;;4985468;28;20197;-77
2021/07/25 05:46:54;;;;;;;13.57;12.43;;;21.10;99.90;;;;;;4985841;28;20200;-77
2021/07/25 05:49:22;;;;;;;13.77;12.47;;;21.30;99.90;;;;;;4967572;28;20197;-78
2021/07/25 05:51:49;;;;;;;12.10;11.10;;;21.60;99.90;;;;;;4985061;28;20225;-77
2021/07/25 05:54:16;;;;;;;11.03;9.53;;;22.10;99.90;;;;;;4973816;28;20243;-77
2021/07/25 05:56:43;;;;;;;9.80;8.90;;;22.50;99.90;;;;;;4984211;28;20194;-78
2021/07/25 05:59:10;;;;;;;12.93;11.83;;;22.90;99.90;;;;;;4967768;28;20252;-77
2021/07/25 06:01:38;;;;;;;14.20;13.00;;;23.30;99.90;;;;;;4983003;28;20627;-78
2021/07/25 06:04:05;;;;;;;14.20;13.20;;;23.40;99.90;;;;;;4985209;28;20201;-77
2021/07/25 06:06:34;;;;;;;12.70;11.60;;;23.60;99.90;;;;;;4982726;28;20535;-78
2021/07/25 06:09:03;;;;;;;12.00;11.00;;;23.80;99.90;;;;;;4970857;28;20721;-77
2021/07/25 06:11:30;;;;;;;11.93;10.93;;;23.90;99.90;;;;;;4975126;28;20224;-77
2021/07/25 06:13:57;;;;;;;11.30;10.43;;;23.90;99.90;;;;;;4967041;28;20190;-77
2021/07/25 06:16:24;;;;;;;11.47;10.57;;;23.80;99.90;;;;;;4975950;28;20203;-77
2021/07/25 06:18:51;;;;;;;11.67;10.67;;;23.60;99.90;;;;;;4966099;28;20199;-78
2021/07/25 06:21:18;;;;;;;11.40;10.53;;;23.30;99.90;;;;;;4982663;28;20221;-77
2021/07/25 06:23:47;;;;;;;11.30;10.40;;;23.20;99.90;;;;;;4963064;28;20202;-78
2021/07/25 06:26:14;;;;;;;11.83;10.83;;;22.90;99.90;;;;;;4982402;28;20220;-77
2021/07/25 06:28:41;;;;;;;11.67;10.67;;;22.90;99.90;;;;;;4957560;28;20216;-82
2021/07/25 06:31:08;;;;;;;11.70;10.70;;;23.20;99.90;;;;;;4970900;28;20214;-82
2021/07/25 06:33:35;;;;;;;11.67;10.70;;;23.70;99.90;;;;;;4963188;28;20197;-82
2021/07/25 06:36:04;;;;;;;12.07;11.10;;;24.30;99.90;;;;;;4964525;28;20992;-82
2021/07/25 06:38:31;;;;;;;11.90;11.00;;;24.40;99.90;;;;;;4984299;28;20193;-82
2021/07/25 06:40:59;;;;;;;11.37;10.33;;;24.30;99.90;;;;;;4962744;28;20224;-80
2021/07/25 06:43:26;;;;;;;11.27;10.47;;;24.30;99.90;;;;;;4966945;28;20204;-79
2021/07/25 06:45:56;;;;;;;10.93;9.83;;;24.10;99.90;;;;;;4956364;28;20204;-81
2021/07/25 06:48:24;;;;;;;11.57;10.57;;;24.30;99.90;;;;;;4982313;28;20244;-83
2021/07/25 06:50:53;;;;;;;10.87;10.03;;;24.60;99.90;;;;;;4971522;28;20212;-77
2021/07/25 06:53:21;;;;;;;11.47;10.50;;;24.80;99.90;;;;;;4974658;28;20290;-78
2021/07/25 06:55:49;;;;;;;10.43;9.43;;;25.20;99.90;;;;;;4967849;28;20564;-78
2021/07/25 06:58:18;;;;;;;10.23;9.33;;;25.10;99.90;;;;;;4985943;28;20251;-78
2021/07/25 07:00:45;;;;;;;10.77;9.80;;;25.00;99.90;;;;;;4982685;28;20577;-79
2021/07/25 07:03:13;;;;;;;10.47;9.63;;;25.10;99.90;;;;;;4961733;28;20204;-78
2021/07/25 07:05:40;;;;;;;10.67;9.67;;;25.40;99.90;;;;;;4983288;28;20201;-79
2021/07/25 07:08:07;;;;;;;10.00;9.13;;;25.20;99.90;;;;;;4963511;28;20248;-78
2021/07/25 07:10:36;;;;;;;9.80;9.10;;;25.10;99.90;;;;;;4967931;28;20204;-78
2021/07/25 07:13:06;;;;;;;10.50;9.70;;;24.80;99.90;;;;;;4962094;28;20226;-79
2021/07/25 07:15:36;;;;;;;11.37;10.40;;;24.50;99.90;;;;;;4965316;28;20203;-78
2021/07/25 07:18:04;;;;;;;13.37;12.17;;;24.00;99.90;;;;;;4979635;28;20560;-78
2021/07/25 07:20:31;;;;;;;13.00;12.00;;;23.70;99.90;;;;;;4979764;28;20266;-78
2021/07/25 07:23:00;;;;;;;13.20;12.20;;;23.50;99.90;;;;;;4974143;28;20231;-78
2021/07/25 07:25:28;;;;;;;11.70;10.90;;;23.40;99.90;;;;;;4981905;28;20209;-78
2021/07/25 07:27:55;;;;;;;13.47;12.47;;;23.30;99.90;;;;;;4984660;28;20201;-79
2021/07/25 07:30:22;;;;;;;12.87;11.70;;;23.20;99.90;;;;;;4968238;28;20195;-77
2021/07/25 07:32:51;;;;;;;14.00;13.00;;;23.10;99.90;;;;;;4969329;28;20777;-79
2021/07/25 07:35:22;;;;;;;15.50;14.20;;;23.00;99.90;;;;;;4978011;28;20210;-79
2021/07/25 07:37:49;;;;;;;10.87;9.97;;;22.80;99.90;;;;;;4959213;28;20205;-78
2021/07/25 07:40:16;;;;;;;7.47;6.67;;;22.80;99.90;;;;;;4959909;28;20214;-80
2021/07/25 07:42:43;;;;;;;9.17;6.63;;;22.90;99.90;;;;;;4955637;28;20621;-78
2021/07/25 07:45:10;;;;;;;7.50;6.40;;;23.00;99.90;;;;;;4959112;28;20201;-78
2021/07/25 07:47:37;;;;;;;9.83;6.63;;;23.00;99.90;;;;;;4957202;28;20224;-78
2021/07/25 07:50:06;;;;;;;8.47;6.90;;;23.00;99.90;;;;;;4955043;28;20258;-78
2021/07/25 07:52:33;;;;;;;7.03;5.83;;;23.00;99.90;;;;;;4958661;28;20571;-78
2021/07/25 07:55:00;;;;;;;7.57;6.60;;;23.00;99.90;;;;;;4974533;28;20189;-78
2021/07/25 07:57:27;;;;;;;7.20;6.23;;;23.00;99.90;;;;;;4960730;28;20202;-77
2021/07/25 07:59:54;;;;;;;6.80;6.03;;;23.00;99.90;;;;;;4963190;28;20217;-78
2021/07/25 08:02:20;;;;;;;7.33;6.10;;;23.00;99.90;;;;;;4979357;28;20221;-78
2021/07/25 08:04:47;;;;;;;8.53;7.17;;;22.90;99.90;;;;;;4964671;28;20243;-78
2021/07/25 08:07:15;;;;;;;9.47;6.40;;;22.90;99.90;;;;;;4976606;28;20568;-78
2021/07/25 08:09:42;;;;;;;7.40;6.60;;;22.90;99.90;;;;;;4978731;28;20202;-78
2021/07/25 08:12:10;;;;;;;7.83;6.53;;;23.00;99.90;;;;;;4983262;28;20217;-78
2021/07/25 08:14:36;;;;;;;9.13;6.63;;;23.30;99.90;;;;;;4963736;28;20206;-77
2021/07/25 08:17:04;;;;;;;8.60;6.97;;;23.60;99.90;;;;;;4979599;28;20313;-76
2021/07/25 08:19:31;;;;;;;8.00;6.33;;;23.80;99.90;;;;;;4946242;28;20548;-77
2021/07/25 08:21:58;;;;;;;7.33;6.13;;;23.90;99.90;;;;;;4958646;28;20268;-77
2021/07/25 08:24:27;;;;;;;7.43;6.47;;;24.10;99.90;;;;;;4976713;28;20198;-77
2021/07/25 08:26:54;;;;;;;6.73;5.60;;;23.80;99.90;;;;;;4959286;28;20861;-76
2021/07/25 08:29:21;;;;;;;8.60;7.23;;;23.60;99.90;;;;;;4976282;28;20198;-77
2021/07/25 08:31:48;;;;;;;13.10;12.07;;;23.50;99.90;;;;;;4959133;28;20770;-77
2021/07/25 08:34:15;;;;;;;12.20;11.30;;;23.30;99.90;;;;;;4958801;28;20197;-76
2021/07/25 08:36:43;;;;;;;12.17;11.17;;;23.20;99.90;;;;;;4974978;28;20658;-77
2021/07/25 08:39:10;;;;;;;11.93;11.03;;;23.10;99.90;;;;;;4970831;28;20214;-77
2021/07/25 08:41:58;;;;;;;12.67;11.67;;;23.20;99.90;;;;;;4949226;28;20311;-77
2021/07/25 08:44:44;;;;;;;13.30;12.30;;;23.30;99.90;;;;;;4971676;28;20214;-77
2021/07/25 08:47:20;;;;;;;12.30;11.30;;;23.30;99.90;;;;;;4968998;28;20205;-76
2021/07/25 08:49:55;;;;;;;11.90;11.00;;;23.40;99.90;;;;;;4957306;28;20206;-77
2021/07/25 08:52:24;;;;;;;11.90;10.90;;;23.50;99.90;;;;;;4973487;28;20214;-76
2021/07/25 08:54:51;;;;;;;12.50;11.40;;;23.60;99.90;;;;;;4982793;28;20213;-76
2021/07/25 08:57:22;;;;;;;11.30;10.40;;;23.70;99.90;;;;;;4984828;28;20196;-77
2021/07/25 08:59:51;;;;;;;12.30;11.30;;;23.80;99.90;;;;;;4967522;28;20264;-76
2021/07/25 09:02:21;;;;;;;11.70;10.80;;;23.80;99.90;;;;;;4985738;28;20217;-77
2021/07/25 09:04:48;;;;;;;12.30;11.37;;;23.90;99.90;;;;;;4985950;28;20202;-77
2021/07/25 09:07:16;;;;;;;12.93;11.93;;;23.80;99.90;;;;;;4983196;28;20186;-76
2021/07/25 09:09:44;;;;;;;12.17;11.20;;;23.70;99.90;;;;;;4981258;28;20679;-76
2021/07/25 09:12:14;;;;;;;12.77;11.60;;;23.70;99.90;;;;;;4981417;28;20205;-76
2021/07/25 09:14:49;;;;;;;12.13;11.10;;;23.60;99.90;;;;;;4979222;28;20193;-77
2021/07/25 09:17:16;;;;;;;12.23;11.27;;;23.70;99.90;;;;;;4985973;28;20602;-77
2021/07/25 09:20:19;;;;;;;11.83;10.93;;;23.60;99.90;;;;;;4967482;28;20198;-76
2021/07/25 09:23:07;;;;;;;12.47;11.30;;;23.80;99.90;;;;;;4965879;28;20714;-76
2021/07/25 09:25:40;;;;;;;11.97;11.07;;;24.00;99.90;;;;;;4979734;28;20194;-77
2021/07/25 09:28:14;;;;;;;12.00;11.13;;;23.90;99.90;;;;;;4986384;28;20191;-77
2021/07/25 09:30:43;;;;;;;12.00;11.10;;;23.80;99.90;;;;;;4967433;28;20205;-77
2021/07/25 09:33:27;;;;;;;11.40;10.50;;;23.80;99.90;;;;;;4973151;28;20702;-76
2021/07/25 09:36:01;;;;;;;12.50;11.50;;;23.80;99.90;;;;;;4982106;28;20197;-76
2021/07/25 09:38:28;;;;;;;13.00;12.00;;;23.70;99.90;;;;;;4968319;28;20198;-77
2021/07/25 09:40:55;;;;;;;12.17;11.27;;;23.60;99.90;;;;;;4997911;28;20191;-76
2021/07/25 09:43:24;;;;;;;13.30;12.30;;;23.60;99.90;;;;;;5009040;28;20178;-76
2021/07/25 09:46:01;;;;;;;12.90;11.90;;;23.50;99.90;;;;;;5002096;28;20225;-76
2021/07/25 09:48:30;;;;;;;12.87;11.97;;;23.50;99.90;;;;;;4970295;28;20193;-77
2021/07/25 09:51:01;;;;;;;12.80;11.80;;;23.50;99.90;;;;;;4981001;28;20197;-77
2021/07/25 09:53:43;;;;;;;13.00;12.00;;;23.50;99.90;;;;;;4974156;28;20194;-77
2021/07/25 09:56:12;;;;;;;13.00;12.03;;;23.40;99.90;;;;;;4956898;28;20198;-76
2021/07/25 09:58:40;;;;;;;12.67;11.77;;;23.40;99.90;;;;;;4970971;28;20624;-78
2021/07/25 10:01:08;;;;;;;12.20;11.20;;;23.40;99.90;;;;;;4979057;28;20217;-77
2021/07/25 10:03:35;;;;;;;13.00;12.10;;;23.40;99.90;;;;;;4983138;28;20206;-76
2021/07/25 10:06:21;;;;;;;12.80;11.77;;;23.40;99.90;;;;;;4983870;28;20246;-77
2021/07/25 10:08:48;;;;;;;13.37;12.27;;;23.30;99.90;;;;;;4993020;28;20197;-77
2021/07/25 10:11:19;;;;;;;13.33;12.10;;;23.30;99.90;;;;;;4977062;28;20239;-77
2021/07/25 10:13:48;;;;;;;12.93;12.00;;;23.40;99.90;;;;;;4958030;28;20197;-77
2021/07/25 10:16:19;;;;;;;12.73;11.83;;;23.50;99.90;;;;;;4973624;28;20209;-77
2021/07/25 10:18:48;;;;;;;12.90;11.83;;;23.70;99.90;;;;;;4987540;28;20224;-77
2021/07/25 10:21:16;;;;;;;12.60;11.70;;;23.80;99.90;;;;;;4981393;28;20615;-77
2021/07/25 10:23:50;;;;;;;13.30;12.03;;;23.80;99.90;;;;;;4966893;28;20600;-77
2021/07/25 10:26:18;;;;;;;12.87;11.97;;;23.70;99.90;;;;;;4986752;28;20736;-77
2021/07/25 10:28:46;;;;;;;13.03;12.03;;;23.60;99.90;;;;;;4963143;28;20202;-77
2021/07/25 10:31:17;;;;;;;12.93;11.83;;;23.40;99.90;;;;;;4969073;28;20213;-77
2021/07/25 10:33:49;;;;;;;12.80;11.80;;;23.40;99.90;;;;;;4965771;28;20265;-77
2021/07/25 10:36:17;;;;;;;12.90;11.80;;;23.30;99.90;;;;;;4965803;28;20189;-78
2021/07/25 10:38:45;;;;;;;13.13;12.13;;;23.20;99.90;;;;;;4983268;28;20252;-78
2021/07/25 10:41:14;;;;;;;13.20;12.00;;;23.00;99.90;;;;;;4963952;28;20272;-78
2021/07/25 10:43:41;;;;;;;13.33;12.33;;;22.90;99.90;;;;;;4978085;28;20217;-78
2021/07/25 10:46:21;;;;;;;13.87;12.70;;;23.00;99.90;;;;;;4968909;28;20559;-77
2021/07/25 10:49:18;;;;;;;13.37;12.30;;;23.00;99.90;;;;;;4978948;28;20232;-78
2021/07/25 10:52:12;;;;;;;13.70;12.60;;;23.00;99.90;;;;;;4930983;28;20279;-79
2021/07/25 10:54:48;;;;;;;13.40;12.27;;;23.10;99.90;;;;;;4947118;28;20213;-78
2021/07/25 10:57:15;;;;;;;13.80;12.77;;;23.10;99.90;;;;;;4984831;28;20653;-78
2021/07/25 10:59:47;;;;;;;13.27;12.07;;;23.20;99.90;;;;;;4966841;28;20244;-78
2021/07/25 11:02:35;;;;;;;12.60;11.63;;;23.20;99.90;;;;;;4977443;28;20271;-78
2021/07/25 11:05:10;;;;;;;12.67;11.77;;;23.20;99.90;;;;;;4966370;28;20216;-77
2021/07/25 11:07:38;;;;;;;13.37;12.37;;;23.30;99.90;;;;;;4977183;28;20201;-77
2021/07/25 11:10:11;;;;;;;13.10;11.90;;;23.40;99.90;;;;;;4977839;28;20723;-78
2021/07/25 11:13:11;;;;;;;13.13;12.03;;;23.60;99.90;;;;;;4966493;28;20258;-78
2021/07/25 11:15:38;;;;;;;12.83;11.93;;;23.60;99.90;;;;;;4984532;28;20193;-78
2021/07/25 11:18:06;;;;;;;12.60;11.70;;;23.80;99.90;;;;;;4965866;28;20655;-77
2021/07/25 11:20:45;;;;;;;12.50;11.50;;;23.80;99.90;;;;;;4967000;28;20267;-78
2021/07/25 11:23:14;;;;;;;12.93;11.93;;;23.70;99.90;;;;;;4989559;28;20728;-78
2021/07/25 11:25:41;;;;;;;12.97;11.97;;;23.60;99.90;;;;;;4985818;28;20204;-78
2021/07/25 11:28:09;;;;;;;13.63;12.43;;;23.40;99.90;;;;;;4990089;28;20654;-77
2021/07/25 11:31:10;;;;;;;12.63;11.73;;;23.30;99.90;;;;;;4968028;28;20297;-78
2021/07/25 11:33:54;;;;;;;14.57;13.47;;;23.20;99.90;;;;;;4957515;28;20202;-78
2021/07/25 11:36:24;;;;;;;14.13;13.03;;;23.10;99.90;;;;;;5011025;22;20249;-80
2021/07/25 11:38:56;;;;;;;13.30;12.40;;;23.00;99.90;;;;;;4991273;28;20202;-76
2021/07/25 12:07:55;;;;;;;13.17;12.07;;;22.30;99.90;;;;;;4991930;28;20283;-79
2021/07/25 12:44:10;;;;;;;13.70;12.70;;;22.20;99.90;;;;;;4947131;28;20241;-77
2021/07/25 12:46:38;;;;;;;14.70;13.50;;;22.40;99.90;;;;;;4975032;28;20221;-78
2021/07/25 12:49:05;;;;;;;15.03;13.50;;;22.50;99.90;;;;;;4955370;28;20270;-77
2021/07/25 12:51:42;;;;;;;15.53;14.33;;;22.60;99.90;;;;;;4975846;28;20681;-78
2021/07/25 12:54:12;;;;;;;14.80;13.50;;;22.70;99.90;;;;;;4958659;28;20198;-77
2021/07/25 12:56:43;;;;;;;14.63;13.53;;;23.00;99.90;;;;;;4947117;28;20731;-77
2021/07/25 12:59:14;;;;;;;14.37;13.10;;;23.20;99.90;;;;;;4955156;28;20273;-77
2021/07/25 14:43:28;;;;;;;13.53;12.30;;;23.60;99.90;;;;;;4839532;29;20230;-81
2021/07/25 15:06:01;;;;;;;10.20;9.40;;;24.40;99.90;;;;;;4824642;29;20784;-80
2021/07/25 15:26:13;;;;;;;9.33;8.73;;;24.10;99.90;;;;;;4904142;28;20692;-79
2021/07/25 15:48:51;;;;;;;9.47;8.87;;;24.00;99.90;;;;;;4965496;28;20213;-77
2021/07/25 15:52:08;;;;;;;9.37;8.77;;;23.90;99.90;;;;;;4956588;28;20923;-78
2021/07/25 15:55:46;;;;;;;;;;;;;;;;;;;;;
2021/07/25 16:26:53;;;;;;;8.40;7.70;;;23.30;99.90;;;;;;4680789;30;20239;-78
2021/07/25 18:01:11;;;;;;;8.40;7.90;;;22.50;99.90;;;;;;4981975;23;20224;-78
2021/07/25 18:03:39;;;;;;;8.60;8.00;;;22.40;99.90;;;;;;5001668;28;20213;-80
2021/07/25 18:06:06;;;;;;;8.77;8.17;;;22.40;99.90;;;;;;4999009;28;20200;-78
2021/07/25 18:08:35;;;;;;;8.87;8.27;;;22.30;99.90;;;;;;4977135;28;20208;-79
2021/07/25 18:11:02;;;;;;;8.10;7.60;;;22.20;99.90;;;;;;4985706;28;20268;-79
2021/07/25 18:13:29;;;;;;;9.00;8.40;;;22.10;99.90;;;;;;4965046;28;20269;-80
2021/07/25 18:15:55;;;;;;;8.10;7.60;;;22.00;99.90;;;;;;4965015;28;20252;-80
2021/07/25 18:18:24;;;;;;;8.07;7.57;;;21.90;99.90;;;;;;4946189;28;20236;-79
2021/07/25 18:20:51;;;;;;;7.90;7.40;;;21.80;99.90;;;;;;4947355;28;20256;-79
2021/07/25 18:23:18;;;;;;;8.10;7.50;;;21.70;99.90;;;;;;4964099;28;20213;-78